sensor_id;sensor_type;location;lat;lon;timestamp;pressure;altitude;pressure_sealevel;temperature;humidity
10348;BME280;5220;43.192;23.284;2024-02-16T00:00:25;97704.88;;;4.96;100.00
10348;BME280;5220;43.192;23.284;2024-02-16T00:02:51;97701.66;;;4.91;100.00
10348;BME280;5220;43.192;23.284;2024-02-16T00:05:19;97708.94;;;4.80;100.00
10348;BME280;5220;43.192;23.284;2024-02-16T00:07:45;97707.75;;;4.88;100.00
10348;BME280;5220;43.192;23.284;2024-02-16T00:10:12;97711.22;;;4.87;100.00
10348;BME280;5220;43.192;23.284;2024-02-16T00:12:39;97706.19;;;4.84;100.00
10348;BME280;5220;43.192;23.284;2024-02-16T00:15:07;97707.16;;;4.82;100.00
10348;BME280;5220;43.192;23.284;2024-02-16T00:17:37;97708.31;;;4.73;100.00
10348;BME280;5220;43.192;23.284;2024-02-16T00:20:05;97716.28;;;4.67;100.00
10348;BME280;5220;43.192;23.284;2024-02-16T00:22:32;97704.97;;;4.71;100.00
10348;BME280;5220;43.192;23.284;2024-02-16T00:24:59;97709.25;;;4.72;100.00
10348;BME280;5220;43.192;23.284;2024-02-16T00:27:26;97715.47;;;4.67;100.00
10348;BME280;5220;43.192;23.284;2024-02-16T00:29:52;97711.97;;;4.68;100.00
10348;BME280;5220;43.192;23.284;2024-02-16T00:32:19;97715.28;;;4.71;100.00
10348;BME280;5220;43.192;23.284;2024-02-16T00:34:47;97713.03;;;4.62;100.00
10348;BME280;5220;43.192;23.284;2024-02-16T00:37:14;97717.47;;;4.59;100.00
10348;BME280;5220;43.192;23.284;2024-02-16T00:39:40;97719.19;;;4.58;100.00
10348;BME280;5220;43.192;23.284;2024-02-16T00:42:08;97708.91;;;4.58;100.00
10348;BME280;5220;43.192;23.284;2024-02-16T00:44:34;97713.22;;;4.58;100.00
10348;BME280;5220;43.192;23.284;2024-02-16T00:47:01;97714.91;;;4.59;100.00
10348;BME280;5220;43.192;23.284;2024-02-16T00:49:28;97717.34;;;4.62;100.00
10348;BME280;5220;43.192;23.284;2024-02-16T00:51:56;97713.91;;;4.63;100.00
10348;BME280;5220;43.192;23.284;2024-02-16T00:54:22;97709.31;;;4.48;100.00
10348;BME280;5220;43.192;23.284;2024-02-16T00:56:49;97717.03;;;4.48;100.00
10348;BME280;5220;43.192;23.284;2024-02-16T00:59:16;97704.94;;;4.50;100.00
10348;BME280;5220;43.192;23.284;2024-02-16T01:01:42;97704.69;;;4.56;100.00
10348;BME280;5220;43.192;23.284;2024-02-16T01:04:09;97704.59;;;4.59;100.00
10348;BME280;5220;43.192;23.284;2024-02-16T01:06:36;97702.91;;;4.58;100.00
10348;BME280;5220;43.192;23.284;2024-02-16T01:09:04;97699.50;;;4.57;100.00
10348;BME280;5220;43.192;23.284;2024-02-16T01:11:31;97699.66;;;4.53;100.00
10348;BME280;5220;43.192;23.284;2024-02-16T01:13:57;97690.19;;;4.53;100.00
10348;BME280;5220;43.192;23.284;2024-02-16T01:16:24;97690.44;;;4.47;100.00
10348;BME280;5220;43.192;23.284;2024-02-16T01:18:51;97702.34;;;4.50;100.00
10348;BME280;5220;43.192;23.284;2024-02-16T01:21:17;97688.47;;;4.54;100.00
10348;BME280;5220;43.192;23.284;2024-02-16T01:23:44;97693.75;;;4.51;100.00
10348;BME280;5220;43.192;23.284;2024-02-16T01:26:12;97694.41;;;4.56;100.00
10348;BME280;5220;43.192;23.284;2024-02-16T01:28:39;97685.81;;;4.55;100.00
10348;BME280;5220;43.192;23.284;2024-02-16T01:31:06;97691.81;;;4.56;100.00
10348;BME280;5220;43.192;23.284;2024-02-16T01:33:35;97684.94;;;4.56;100.00
10348;BME280;5220;43.192;23.284;2024-02-16T01:36:02;97687.16;;;4.42;100.00
10348;BME280;5220;43.192;23.284;2024-02-16T01:38:28;97687.47;;;4.34;100.00
10348;BME280;5220;43.192;23.284;2024-02-16T01:40:55;97687.16;;;4.42;100.00
10348;BME280;5220;43.192;23.284;2024-02-16T01:43:23;97681.75;;;4.50;100.00
10348;BME280;5220;43.192;23.284;2024-02-16T01:45:51;97674.09;;;4.48;100.00
10348;BME280;5220;43.192;23.284;2024-02-16T01:48:18;97673.28;;;4.46;100.00
10348;BME280;5220;43.192;23.284;2024-02-16T01:50:45;97666.88;;;4.34;100.00
10348;BME280;5220;43.192;23.284;2024-02-16T01:53:15;97661.38;;;4.20;100.00
10348;BME280;5220;43.192;23.284;2024-02-16T01:55:44;97664.50;;;4.52;100.00
10348;BME280;5220;43.192;23.284;2024-02-16T01:58:11;97663.25;;;4.62;100.00
10348;BME280;5220;43.192;23.284;2024-02-16T02:00:39;97675.00;;;4.69;100.00
10348;BME280;5220;43.192;23.284;2024-02-16T02:03:07;97673.28;;;4.69;100.00
10348;BME280;5220;43.192;23.284;2024-02-16T02:05:43;97669.13;;;4.65;100.00
10348;BME280;5220;43.192;23.284;2024-02-16T02:08:11;97669.13;;;4.65;100.00
10348;BME280;5220;43.192;23.284;2024-02-16T02:10:38;97663.47;;;4.56;100.00
10348;BME280;5220;43.192;23.284;2024-02-16T02:13:05;97665.16;;;4.57;100.00
10348;BME280;5220;43.192;23.284;2024-02-16T02:15:32;97669.41;;;4.58;100.00
10348;BME280;5220;43.192;23.284;2024-02-16T02:18:00;97672.84;;;4.35;100.00
10348;BME280;5220;43.192;23.284;2024-02-16T02:20:26;97670.47;;;4.52;100.00
10348;BME280;5220;43.192;23.284;2024-02-16T02:22:54;97676.81;;;4.44;100.00
10348;BME280;5220;43.192;23.284;2024-02-16T02:25:21;97671.28;;;4.54;100.00
10348;BME280;5220;43.192;23.284;2024-02-16T02:27:48;97678.16;;;4.54;100.00
10348;BME280;5220;43.192;23.284;2024-02-16T02:30:15;97671.28;;;4.54;100.00
10348;BME280;5220;43.192;23.284;2024-02-16T02:32:42;97663.81;;;4.47;100.00
10348;BME280;5220;43.192;23.284;2024-02-16T02:35:10;97664.56;;;4.50;100.00
10348;BME280;5220;43.192;23.284;2024-02-16T02:37:39;97674.63;;;4.56;100.00
10348;BME280;5220;43.192;23.284;2024-02-16T02:40:09;97674.69;;;4.55;100.00
10348;BME280;5220;43.192;23.284;2024-02-16T02:42:36;97679.59;;;4.61;100.00
10348;BME280;5220;43.192;23.284;2024-02-16T02:45:03;97672.28;;;4.50;100.00
10348;BME280;5220;43.192;23.284;2024-02-16T02:47:31;97675.97;;;4.43;100.00
10348;BME280;5220;43.192;23.284;2024-02-16T02:49:57;97674.13;;;4.47;100.00
10348;BME280;5220;43.192;23.284;2024-02-16T02:52:24;97673.13;;;4.51;100.00
10348;BME280;5220;43.192;23.284;2024-02-16T02:54:51;97665.81;;;4.17;100.00
10348;BME280;5220;43.192;23.284;2024-02-16T02:57:19;97671.13;;;4.36;100.00
10348;BME280;5220;43.192;23.284;2024-02-16T02:59:46;97666.63;;;4.41;100.00
10348;BME280;5220;43.192;23.284;2024-02-16T03:02:12;97668.25;;;4.43;100.00
10348;BME280;5220;43.192;23.284;2024-02-16T03:04:39;97673.47;;;4.42;100.00
10348;BME280;5220;43.192;23.284;2024-02-16T03:07:06;97673.75;;;4.34;100.00
10348;BME280;5220;43.192;23.284;2024-02-16T03:09:32;97668.13;;;4.46;100.00
10348;BME280;5220;43.192;23.284;2024-02-16T03:11:59;97672.31;;;4.49;100.00
10348;BME280;5220;43.192;23.284;2024-02-16T03:14:28;97678.31;;;4.49;100.00
10348;BME280;5220;43.192;23.284;2024-02-16T03:16:55;97677.56;;;4.47;100.00
10348;BME280;5220;43.192;23.284;2024-02-16T03:19:22;97676.22;;;4.37;100.00
10348;BME280;5220;43.192;23.284;2024-02-16T03:21:48;97681.22;;;4.42;100.00
10348;BME280;5220;43.192;23.284;2024-02-16T03:24:15;97678.75;;;4.39;100.00
10348;BME280;5220;43.192;23.284;2024-02-16T03:26:42;97678.06;;;4.33;100.00
10348;BME280;5220;43.192;23.284;2024-02-16T03:29:09;97675.44;;;4.35;100.00
10348;BME280;5220;43.192;23.284;2024-02-16T03:31:37;97679.63;;;4.38;100.00
10348;BME280;5220;43.192;23.284;2024-02-16T03:34:03;97677.50;;;4.25;100.00
10348;BME280;5220;43.192;23.284;2024-02-16T03:36:30;97672.97;;;4.32;100.00
10348;BME280;5220;43.192;23.284;2024-02-16T03:38:57;97688.69;;;4.24;100.00
10348;BME280;5220;43.192;23.284;2024-02-16T03:41:23;97685.03;;;4.30;100.00
10348;BME280;5220;43.192;23.284;2024-02-16T03:43:50;97686.00;;;4.27;100.00
10348;BME280;5220;43.192;23.284;2024-02-16T03:46:18;97681.78;;;4.26;100.00
10348;BME280;5220;43.192;23.284;2024-02-16T03:48:46;97676.69;;;4.23;100.00
10348;BME280;5220;43.192;23.284;2024-02-16T03:51:13;97676.69;;;4.23;100.00
10348;BME280;5220;43.192;23.284;2024-02-16T03:53:39;97685.16;;;4.27;100.00
10348;BME280;5220;43.192;23.284;2024-02-16T03:56:06;97691.13;;;4.29;100.00
10348;BME280;5220;43.192;23.284;2024-02-16T03:58:33;97687.81;;;4.25;100.00
10348;BME280;5220;43.192;23.284;2024-02-16T04:01:00;97686.84;;;4.28;100.00
10348;BME280;5220;43.192;23.284;2024-02-16T04:03:26;97687.69;;;4.28;100.00
10348;BME280;5220;43.192;23.284;2024-02-16T04:05:54;97680.97;;;4.24;100.00
10348;BME280;5220;43.192;23.284;2024-02-16T04:08:21;97677.63;;;4.22;100.00
10348;BME280;5220;43.192;23.284;2024-02-16T04:10:47;97679.38;;;4.20;100.00
10348;BME280;5220;43.192;23.284;2024-02-16T04:13:14;97672.81;;;4.13;100.00
10348;BME280;5220;43.192;23.284;2024-02-16T04:15:41;97673.34;;;4.21;100.00
10348;BME280;5220;43.192;23.284;2024-02-16T04:18:08;97674.09;;;4.25;100.00
10348;BME280;5220;43.192;23.284;2024-02-16T04:20:35;97672.34;;;4.25;100.00
10348;BME280;5220;43.192;23.284;2024-02-16T04:23:04;97666.31;;;4.26;100.00
10348;BME280;5220;43.192;23.284;2024-02-16T04:25:31;97672.41;;;4.24;100.00
10348;BME280;5220;43.192;23.284;2024-02-16T04:27:58;97676.25;;;4.12;100.00
10348;BME280;5220;43.192;23.284;2024-02-16T04:30:24;97681.38;;;4.14;100.00
10348;BME280;5220;43.192;23.284;2024-02-16T04:32:51;97684.53;;;4.20;100.00
10348;BME280;5220;43.192;23.284;2024-02-16T04:35:18;97680.63;;;4.10;100.00
10348;BME280;5220;43.192;23.284;2024-02-16T04:37:44;97689.03;;;4.15;100.00
10348;BME280;5220;43.192;23.284;2024-02-16T04:40:13;97691.34;;;4.23;100.00
10348;BME280;5220;43.192;23.284;2024-02-16T04:42:39;97693.69;;;4.29;100.00
10348;BME280;5220;43.192;23.284;2024-02-16T04:45:07;97689.28;;;4.32;100.00
10348;BME280;5220;43.192;23.284;2024-02-16T04:47:34;97694.34;;;4.34;100.00
10348;BME280;5220;43.192;23.284;2024-02-16T04:50:00;97694.00;;;4.43;100.00
10348;BME280;5220;43.192;23.284;2024-02-16T04:52:28;97700.84;;;4.44;100.00
10348;BME280;5220;43.192;23.284;2024-02-16T04:54:55;97697.41;;;4.45;100.00
10348;BME280;5220;43.192;23.284;2024-02-16T04:57:23;97695.50;;;4.49;100.00
10348;BME280;5220;43.192;23.284;2024-02-16T04:59:49;97697.16;;;4.51;100.00
10348;BME280;5220;43.192;23.284;2024-02-16T05:02:17;97701.81;;;4.42;100.00
10348;BME280;5220;43.192;23.284;2024-02-16T05:04:43;97702.13;;;4.56;100.00
10348;BME280;5220;43.192;23.284;2024-02-16T05:07:10;97696.69;;;4.63;100.00
10348;BME280;5220;43.192;23.284;2024-02-16T05:09:37;97699.28;;;4.63;100.00
10348;BME280;5220;43.192;23.284;2024-02-16T05:12:05;97705.94;;;4.69;100.00
10348;BME280;5220;43.192;23.284;2024-02-16T05:14:35;97703.13;;;4.75;100.00
10348;BME280;5220;43.192;23.284;2024-02-16T05:17:02;97708.19;;;4.76;100.00
10348;BME280;5220;43.192;23.284;2024-02-16T05:19:32;97703.84;;;4.78;100.00
10348;BME280;5220;43.192;23.284;2024-02-16T05:21:59;97712.44;;;4.79;100.00
10348;BME280;5220;43.192;23.284;2024-02-16T05:24:25;97706.97;;;4.86;100.00
10348;BME280;5220;43.192;23.284;2024-02-16T05:26:52;97706.91;;;4.88;100.00
10348;BME280;5220;43.192;23.284;2024-02-16T05:29:19;97710.16;;;4.93;100.00
10348;BME280;5220;43.192;23.284;2024-02-16T05:31:50;97714.66;;;4.88;100.00
10348;BME280;5220;43.192;23.284;2024-02-16T05:34:17;97717.00;;;4.94;100.00
10348;BME280;5220;43.192;23.284;2024-02-16T05:36:44;97718.44;;;5.01;100.00
10348;BME280;5220;43.192;23.284;2024-02-16T05:39:11;97718.19;;;5.07;100.00
10348;BME280;5220;43.192;23.284;2024-02-16T05:41:52;97724.91;;;5.11;100.00
10348;BME280;5220;43.192;23.284;2024-02-16T05:44:18;97725.13;;;5.05;100.00
10348;BME280;5220;43.192;23.284;2024-02-16T05:46:46;97721.56;;;5.09;100.00
10348;BME280;5220;43.192;23.284;2024-02-16T05:49:14;97721.66;;;5.06;100.00
10348;BME280;5220;43.192;23.284;2024-02-16T05:51:41;97725.50;;;5.18;100.00
10348;BME280;5220;43.192;23.284;2024-02-16T05:54:25;97736.19;;;5.09;100.00
10348;BME280;5220;43.192;23.284;2024-02-16T05:56:53;97728.25;;;4.92;100.00
10348;BME280;5220;43.192;23.284;2024-02-16T05:59:20;97731.66;;;4.92;100.00
10348;BME280;5220;43.192;23.284;2024-02-16T06:01:47;97723.41;;;5.06;100.00
10348;BME280;5220;43.192;23.284;2024-02-16T06:04:15;97727.97;;;5.21;100.00
10348;BME280;5220;43.192;23.284;2024-02-16T06:06:42;97730.06;;;5.33;100.00
10348;BME280;5220;43.192;23.284;2024-02-16T06:09:09;97728.78;;;5.43;100.00
10348;BME280;5220;43.192;23.284;2024-02-16T06:11:36;97730.88;;;5.55;100.00
10348;BME280;5220;43.192;23.284;2024-02-16T06:14:03;97730.44;;;5.66;100.00
10348;BME280;5220;43.192;23.284;2024-02-16T06:16:30;97737.22;;;5.68;100.00
10348;BME280;5220;43.192;23.284;2024-02-16T06:18:56;97726.31;;;5.62;100.00
10348;BME280;5220;43.192;23.284;2024-02-16T06:21:24;97727.75;;;5.69;100.00
10348;BME280;5220;43.192;23.284;2024-02-16T06:23:51;97726.91;;;5.68;100.00
10348;BME280;5220;43.192;23.284;2024-02-16T06:26:18;97733.66;;;5.51;100.00
10348;BME280;5220;43.192;23.284;2024-02-16T06:28:45;97728.72;;;5.66;100.00
10348;BME280;5220;43.192;23.284;2024-02-16T06:31:12;97726.25;;;5.83;100.00
10348;BME280;5220;43.192;23.284;2024-02-16T06:33:39;97736.94;;;5.96;100.00
10348;BME280;5220;43.192;23.284;2024-02-16T06:36:07;97728.03;;;6.03;100.00
10348;BME280;5220;43.192;23.284;2024-02-16T06:38:36;97732.81;;;6.12;100.00
10348;BME280;5220;43.192;23.284;2024-02-16T06:41:03;97732.28;;;6.24;100.00
10348;BME280;5220;43.192;23.284;2024-02-16T06:43:30;97736.91;;;6.36;100.00
10348;BME280;5220;43.192;23.284;2024-02-16T06:45:57;97733.06;;;6.45;100.00
10348;BME280;5220;43.192;23.284;2024-02-16T06:48:24;97735.34;;;6.53;100.00
10348;BME280;5220;43.192;23.284;2024-02-16T06:50:50;97732.25;;;6.63;100.00
10348;BME280;5220;43.192;23.284;2024-02-16T06:53:17;97732.75;;;6.71;100.00
10348;BME280;5220;43.192;23.284;2024-02-16T06:55:45;97734.75;;;6.85;100.00
10348;BME280;5220;43.192;23.284;2024-02-16T06:58:12;97732.16;;;6.85;100.00
10348;BME280;5220;43.192;23.284;2024-02-16T07:00:38;97727.59;;;6.90;100.00
10348;BME280;5220;43.192;23.284;2024-02-16T07:03:07;97729.47;;;7.05;100.00
10348;BME280;5220;43.192;23.284;2024-02-16T07:05:34;97728.84;;;7.19;100.00
10348;BME280;5220;43.192;23.284;2024-02-16T07:08:01;97724.81;;;7.30;100.00
10348;BME280;5220;43.192;23.284;2024-02-16T07:10:27;97726.13;;;7.39;100.00
10348;BME280;5220;43.192;23.284;2024-02-16T07:12:55;97727.44;;;7.47;100.00
10348;BME280;5220;43.192;23.284;2024-02-16T07:15:22;97729.72;;;7.53;100.00
10348;BME280;5220;43.192;23.284;2024-02-16T07:17:49;97726.56;;;7.66;100.00
10348;BME280;5220;43.192;23.284;2024-02-16T07:20:16;97725.00;;;7.79;100.00
10348;BME280;5220;43.192;23.284;2024-02-16T07:22:43;97722.06;;;7.86;100.00
10348;BME280;5220;43.192;23.284;2024-02-16T07:25:11;97723.34;;;7.95;100.00
10348;BME280;5220;43.192;23.284;2024-02-16T07:27:38;97723.72;;;8.04;100.00
10348;BME280;5220;43.192;23.284;2024-02-16T07:30:09;97723.19;;;8.15;100.00
10348;BME280;5220;43.192;23.284;2024-02-16T07:32:36;97730.94;;;8.32;100.00
10348;BME280;5220;43.192;23.284;2024-02-16T07:35:03;97729.31;;;8.47;100.00
10348;BME280;5220;43.192;23.284;2024-02-16T07:37:31;97730.31;;;8.44;100.00
10348;BME280;5220;43.192;23.284;2024-02-16T07:39:57;97735.84;;;8.54;100.00
10348;BME280;5220;43.192;23.284;2024-02-16T07:42:24;97740.41;;;8.66;100.00
10348;BME280;5220;43.192;23.284;2024-02-16T07:44:53;97744.19;;;8.76;100.00
10348;BME280;5220;43.192;23.284;2024-02-16T07:47:21;97747.78;;;8.74;100.00
10348;BME280;5220;43.192;23.284;2024-02-16T07:49:47;97751.56;;;8.84;97.58
10348;BME280;5220;43.192;23.284;2024-02-16T07:52:14;97739.38;;;9.01;100.00
10348;BME280;5220;43.192;23.284;2024-02-16T07:54:41;97750.31;;;9.22;100.00
10348;BME280;5220;43.192;23.284;2024-02-16T07:57:08;97750.31;;;9.38;98.21
10348;BME280;5220;43.192;23.284;2024-02-16T07:59:34;97745.09;;;9.53;99.06
10348;BME280;5220;43.192;23.284;2024-02-16T08:02:01;97746.84;;;9.68;100.00
10348;BME280;5220;43.192;23.284;2024-02-16T08:04:29;97742.06;;;9.77;94.72
10348;BME280;5220;43.192;23.284;2024-02-16T08:06:57;97749.09;;;9.74;81.22
10348;BME280;5220;43.192;23.284;2024-02-16T08:09:23;97745.88;;;9.85;85.00
10348;BME280;5220;43.192;23.284;2024-02-16T08:11:50;97748.53;;;9.99;90.67
10348;BME280;5220;43.192;23.284;2024-02-16T08:14:17;97751.41;;;9.95;89.78
10348;BME280;5220;43.192;23.284;2024-02-16T08:16:43;97751.66;;;9.90;89.46
10348;BME280;5220;43.192;23.284;2024-02-16T08:19:11;97758.09;;;9.99;89.98
10348;BME280;5220;43.192;23.284;2024-02-16T08:21:40;97758.44;;;9.93;90.85
10348;BME280;5220;43.192;23.284;2024-02-16T08:24:07;97761.25;;;9.74;95.75
10348;BME280;5220;43.192;23.284;2024-02-16T08:26:33;97762.13;;;9.89;93.93
10348;BME280;5220;43.192;23.284;2024-02-16T08:29:00;97761.78;;;9.95;93.95
10348;BME280;5220;43.192;23.284;2024-02-16T08:31:27;97756.59;;;9.95;89.49
10348;BME280;5220;43.192;23.284;2024-02-16T08:33:54;97762.34;;;10.00;88.47
10348;BME280;5220;43.192;23.284;2024-02-16T08:36:21;97760.41;;;10.03;88.14
10348;BME280;5220;43.192;23.284;2024-02-16T08:38:54;97750.13;;;10.02;93.03
10348;BME280;5220;43.192;23.284;2024-02-16T08:41:22;97753.25;;;9.93;92.13
10348;BME280;5220;43.192;23.284;2024-02-16T08:43:50;97768.56;;;9.97;90.35
10348;BME280;5220;43.192;23.284;2024-02-16T08:46:16;97760.03;;;9.95;87.22
10348;BME280;5220;43.192;23.284;2024-02-16T08:48:44;97766.81;;;9.98;86.01
10348;BME280;5220;43.192;23.284;2024-02-16T08:51:10;97759.97;;;10.11;87.03
10348;BME280;5220;43.192;23.284;2024-02-16T08:53:37;97762.44;;;10.28;88.39
10348;BME280;5220;43.192;23.284;2024-02-16T08:56:09;97765.72;;;10.02;84.38
10348;BME280;5220;43.192;23.284;2024-02-16T08:58:35;97762.75;;;10.38;81.68
10348;BME280;5220;43.192;23.284;2024-02-16T09:01:02;97765.81;;;10.44;75.46
10348;BME280;5220;43.192;23.284;2024-02-16T09:03:29;97765.38;;;10.66;74.50
10348;BME280;5220;43.192;23.284;2024-02-16T09:05:58;97754.78;;;10.55;70.34
10348;BME280;5220;43.192;23.284;2024-02-16T09:08:25;97768.19;;;10.77;68.63
10348;BME280;5220;43.192;23.284;2024-02-16T09:10:54;97766.28;;;10.93;66.87
10348;BME280;5220;43.192;23.284;2024-02-16T09:13:22;97763.59;;;10.80;64.20
10348;BME280;5220;43.192;23.284;2024-02-16T09:15:49;97773.38;;;10.77;64.76
10348;BME280;5220;43.192;23.284;2024-02-16T09:18:16;97777.84;;;10.89;62.75
10348;BME280;5220;43.192;23.284;2024-02-16T09:20:43;97774.44;;;11.15;63.61
10348;BME280;5220;43.192;23.284;2024-02-16T09:23:10;97776.25;;;11.01;60.88
10348;BME280;5220;43.192;23.284;2024-02-16T09:25:36;97774.91;;;11.22;60.85
10348;BME280;5220;43.192;23.284;2024-02-16T09:28:04;97772.69;;;11.30;60.27
10348;BME280;5220;43.192;23.284;2024-02-16T09:30:32;97774.19;;;11.47;59.20
10348;BME280;5220;43.192;23.284;2024-02-16T09:32:59;97766.25;;;11.36;56.81
10348;BME280;5220;43.192;23.284;2024-02-16T09:35:25;97772.00;;;11.41;58.10
10348;BME280;5220;43.192;23.284;2024-02-16T09:37:52;97771.56;;;11.20;57.02
10348;BME280;5220;43.192;23.284;2024-02-16T09:40:19;97766.94;;;11.11;57.87
10348;BME280;5220;43.192;23.284;2024-02-16T09:42:48;97772.88;;;11.13;59.69
10348;BME280;5220;43.192;23.284;2024-02-16T09:45:16;97767.34;;;11.46;58.62
10348;BME280;5220;43.192;23.284;2024-02-16T09:47:44;97759.53;;;11.58;57.06
10348;BME280;5220;43.192;23.284;2024-02-16T09:50:12;97768.66;;;11.65;57.17
10348;BME280;5220;43.192;23.284;2024-02-16T09:52:39;97765.06;;;11.54;56.50
10348;BME280;5220;43.192;23.284;2024-02-16T09:55:07;97764.19;;;11.67;55.61
10348;BME280;5220;43.192;23.284;2024-02-16T09:57:36;97765.41;;;11.76;55.75
10348;BME280;5220;43.192;23.284;2024-02-16T10:00:04;97747.91;;;11.91;55.90
10348;BME280;5220;43.192;23.284;2024-02-16T10:02:39;97751.44;;;11.90;54.66
10348;BME280;5220;43.192;23.284;2024-02-16T10:05:12;97746.06;;;12.05;55.76
10348;BME280;5220;43.192;23.284;2024-02-16T10:07:40;97749.34;;;11.82;55.46
10348;BME280;5220;43.192;23.284;2024-02-16T10:10:19;97742.75;;;12.16;56.88
10348;BME280;5220;43.192;23.284;2024-02-16T10:12:46;97743.06;;;12.36;56.41
10348;BME280;5220;43.192;23.284;2024-02-16T10:15:19;97730.44;;;12.30;54.43
10348;BME280;5220;43.192;23.284;2024-02-16T10:17:57;97728.97;;;12.52;55.56
10348;BME280;5220;43.192;23.284;2024-02-16T10:20:25;97736.19;;;12.23;55.23
10348;BME280;5220;43.192;23.284;2024-02-16T10:23:02;97733.53;;;11.98;55.47
10348;BME280;5220;43.192;23.284;2024-02-16T10:25:29;97727.25;;;11.88;54.54
10348;BME280;5220;43.192;23.284;2024-02-16T10:27:57;97725.72;;;11.98;54.29
10348;BME280;5220;43.192;23.284;2024-02-16T10:30:29;97725.97;;;11.80;56.93
10348;BME280;5220;43.192;23.284;2024-02-16T10:32:56;97726.03;;;12.06;54.76
10348;BME280;5220;43.192;23.284;2024-02-16T10:35:26;97710.84;;;12.37;53.77
10348;BME280;5220;43.192;23.284;2024-02-16T10:37:54;97713.31;;;12.64;53.56
10348;BME280;5220;43.192;23.284;2024-02-16T10:40:22;97710.19;;;12.34;53.81
10348;BME280;5220;43.192;23.284;2024-02-16T10:42:50;97712.81;;;12.59;55.10
10348;BME280;5220;43.192;23.284;2024-02-16T10:45:17;97698.59;;;12.76;53.32
10348;BME280;5220;43.192;23.284;2024-02-16T10:47:44;97701.72;;;12.81;52.62
10348;BME280;5220;43.192;23.284;2024-02-16T10:50:11;97699.25;;;12.67;53.00
10348;BME280;5220;43.192;23.284;2024-02-16T10:52:41;97696.81;;;12.76;53.11
10348;BME280;5220;43.192;23.284;2024-02-16T10:55:09;97698.41;;;12.66;52.97
10348;BME280;5220;43.192;23.284;2024-02-16T10:57:37;97688.06;;;12.65;53.65
10348;BME280;5220;43.192;23.284;2024-02-16T11:00:08;97689.16;;;12.86;54.03
10348;BME280;5220;43.192;23.284;2024-02-16T11:02:51;97686.19;;;13.03;52.02
10348;BME280;5220;43.192;23.284;2024-02-16T11:05:18;97684.72;;;12.50;53.28
10348;BME280;5220;43.192;23.284;2024-02-16T11:07:46;97687.63;;;12.71;52.53
10348;BME280;5220;43.192;23.284;2024-02-16T11:10:13;97684.31;;;13.05;52.74
10348;BME280;5220;43.192;23.284;2024-02-16T11:12:44;97675.63;;;13.17;52.30
10348;BME280;5220;43.192;23.284;2024-02-16T11:15:13;97676.97;;;13.23;51.90
10348;BME280;5220;43.192;23.284;2024-02-16T11:17:39;97672.41;;;13.37;51.58
10348;BME280;5220;43.192;23.284;2024-02-16T11:20:25;97674.19;;;13.37;52.04
10348;BME280;5220;43.192;23.284;2024-02-16T11:22:53;97668.50;;;13.43;52.63
10348;BME280;5220;43.192;23.284;2024-02-16T11:25:30;97660.50;;;13.57;52.57
10348;BME280;5220;43.192;23.284;2024-02-16T11:27:58;97665.28;;;13.39;51.46
10348;BME280;5220;43.192;23.284;2024-02-16T11:30:25;97666.34;;;13.37;51.02
10348;BME280;5220;43.192;23.284;2024-02-16T11:32:52;97662.75;;;13.51;51.61
10348;BME280;5220;43.192;23.284;2024-02-16T11:35:18;97656.66;;;13.50;50.39
10348;BME280;5220;43.192;23.284;2024-02-16T11:37:45;97660.66;;;13.43;50.57
10348;BME280;5220;43.192;23.284;2024-02-16T11:40:14;97657.75;;;13.48;51.83
10348;BME280;5220;43.192;23.284;2024-02-16T11:42:40;97660.28;;;13.36;51.63
10348;BME280;5220;43.192;23.284;2024-02-16T11:45:10;97653.28;;;13.37;51.71
10348;BME280;5220;43.192;23.284;2024-02-16T11:47:38;97653.44;;;13.46;52.05
10348;BME280;5220;43.192;23.284;2024-02-16T11:50:06;97644.03;;;13.20;53.89
10348;BME280;5220;43.192;23.284;2024-02-16T11:52:36;97641.59;;;13.30;51.92
10348;BME280;5220;43.192;23.284;2024-02-16T11:55:07;97641.56;;;13.19;51.30
10348;BME280;5220;43.192;23.284;2024-02-16T11:57:36;97640.72;;;13.18;51.86
10348;BME280;5220;43.192;23.284;2024-02-16T12:00:04;97638.94;;;13.42;52.93
10348;BME280;5220;43.192;23.284;2024-02-16T12:02:34;97633.16;;;13.50;50.14
10348;BME280;5220;43.192;23.284;2024-02-16T12:05:01;97637.06;;;13.44;50.42
10348;BME280;5220;43.192;23.284;2024-02-16T12:07:28;97638.94;;;13.42;50.57
10348;BME280;5220;43.192;23.284;2024-02-16T12:09:56;97643.88;;;12.74;52.06
10348;BME280;5220;43.192;23.284;2024-02-16T12:12:23;97632.81;;;12.58;52.46
10348;BME280;5220;43.192;23.284;2024-02-16T12:14:52;97633.63;;;12.71;52.45
10348;BME280;5220;43.192;23.284;2024-02-16T12:17:19;97630.19;;;13.07;52.48
10348;BME280;5220;43.192;23.284;2024-02-16T12:19:46;97633.28;;;13.25;52.06
10348;BME280;5220;43.192;23.284;2024-02-16T12:22:16;97629.22;;;13.44;50.99
10348;BME280;5220;43.192;23.284;2024-02-16T12:24:43;97630.53;;;13.50;50.66
10348;BME280;5220;43.192;23.284;2024-02-16T12:27:10;97625.41;;;13.48;50.13
10348;BME280;5220;43.192;23.284;2024-02-16T12:29:37;97630.94;;;13.68;50.25
10348;BME280;5220;43.192;23.284;2024-02-16T12:32:06;97620.53;;;13.79;50.73
10348;BME280;5220;43.192;23.284;2024-02-16T12:34:35;97624.22;;;13.98;51.28
10348;BME280;5220;43.192;23.284;2024-02-16T12:37:04;97625.44;;;14.06;50.36
10348;BME280;5220;43.192;23.284;2024-02-16T12:39:32;97621.88;;;13.26;50.60
10348;BME280;5220;43.192;23.284;2024-02-16T12:41:59;97617.63;;;13.36;51.99
10348;BME280;5220;43.192;23.284;2024-02-16T12:44:25;97624.41;;;13.62;52.26
10348;BME280;5220;43.192;23.284;2024-02-16T12:46:52;97618.72;;;13.79;51.16
10348;BME280;5220;43.192;23.284;2024-02-16T12:49:20;97619.00;;;13.87;51.05
10348;BME280;5220;43.192;23.284;2024-02-16T12:51:47;97613.06;;;13.85;51.21
10348;BME280;5220;43.192;23.284;2024-02-16T12:54:15;97615.94;;;14.16;49.88
10348;BME280;5220;43.192;23.284;2024-02-16T12:56:44;97618.53;;;13.93;50.59
10348;BME280;5220;43.192;23.284;2024-02-16T12:59:11;97613.53;;;13.90;51.69
10348;BME280;5220;43.192;23.284;2024-02-16T13:01:38;97617.25;;;14.10;49.84